Time;durP1;ratioP1;P1;durP2;ratioP2;P2;SDS_P1;SDS_P2;PMS_P1;PMS_P2;Temp;Humidity;BMP_temperature;BMP_pressure;BME280_temperature;BME280_humidity;BME280_pressure;Samples;Min_cycle;Max_cycle;Signal;HPM_P1;HPM_P2
2023/12/29 00:01:15;;;;;;;117.95;56.17;;;;;;;;;;4999856;28;20087;-57
2023/12/29 00:03:40;;;;;;;125.55;55.60;;;;;;;;;;5001471;28;20062;-52
2023/12/29 00:06:06;;;;;;;110.45;55.17;;;;;;;;;;4998303;28;20029;-55
2023/12/29 00:08:31;;;;;;;123.38;54.08;;;;;;;;;;4998497;28;20030;-56
2023/12/29 00:10:56;;;;;;;134.98;56.30;;;;;;;;;;4997422;28;20170;-55
2023/12/29 00:13:23;;;;;;;152.75;59.15;;;;;;;;;;5001231;28;20091;-55
2023/12/29 00:15:52;;;;;;;164.65;58.60;;;;;;;;;;4998549;28;20971;-56
2023/12/29 00:18:18;;;;;;;134.82;56.13;;;;;;;;;;5000764;28;20025;-58
2023/12/29 00:20:43;;;;;;;114.68;51.50;;;;;;;;;;5015456;28;20126;-54
2023/12/29 00:23:08;;;;;;;109.00;51.30;;;;;;;;;;4999866;28;20568;-54
2023/12/29 00:25:37;;;;;;;109.68;51.72;;;;;;;;;;4999406;28;20055;-57
2023/12/29 00:28:03;;;;;;;101.60;49.95;;;;;;;;;;4999550;28;20034;-52
2023/12/29 00:30:29;;;;;;;113.72;50.70;;;;;;;;;;5001728;28;20469;-55
2023/12/29 00:32:55;;;;;;;98.32;48.75;;;;;;;;;;5000729;28;20017;-55
2023/12/29 00:35:20;;;;;;;108.80;53.33;;;;;;;;;;4998896;28;22000;-54
2023/12/29 00:37:45;;;;;;;106.57;51.38;;;;;;;;;;5004797;28;20079;-55
2023/12/29 00:40:11;;;;;;;109.18;49.25;;;;;;;;;;4997331;28;20734;-56
2023/12/29 00:42:36;;;;;;;126.38;53.80;;;;;;;;;;5000936;28;20129;-55
2023/12/29 00:45:01;;;;;;;104.22;52.22;;;;;;;;;;4999969;28;20076;-58
2023/12/29 00:47:26;;;;;;;123.82;51.42;;;;;;;;;;5003501;28;20051;-52
2023/12/29 00:49:52;;;;;;;106.00;48.28;;;;;;;;;;4998644;28;20524;-52
2023/12/29 00:52:18;;;;;;;108.97;50.72;;;;;;;;;;4998742;28;20025;-57
2023/12/29 00:54:43;;;;;;;115.18;53.17;;;;;;;;;;4995780;28;20662;-51
2023/12/29 00:57:09;;;;;;;111.95;52.50;;;;;;;;;;4998469;28;20025;-60
2023/12/29 00:59:37;;;;;;;118.50;53.85;;;;;;;;;;4996808;28;20356;-56
2023/12/29 01:02:02;;;;;;;122.82;56.03;;;;;;;;;;4998532;28;20153;-55
2023/12/29 01:04:27;;;;;;;116.90;52.50;;;;;;;;;;4998357;28;20433;-55
2023/12/29 01:06:53;;;;;;;120.80;54.42;;;;;;;;;;4998730;28;20037;-55
2023/12/29 01:09:19;;;;;;;111.22;53.08;;;;;;;;;;4997606;28;20017;-55
2023/12/29 01:11:44;;;;;;;108.45;51.03;;;;;;;;;;4998174;28;20340;-56
2023/12/29 01:14:09;;;;;;;98.70;48.60;;;;;;;;;;4998219;28;20037;-57
2023/12/29 01:16:35;;;;;;;114.22;50.55;;;;;;;;;;4998422;28;20091;-53
2023/12/29 01:19:00;;;;;;;109.35;48.33;;;;;;;;;;4997292;28;20490;-54
2023/12/29 01:21:25;;;;;;;109.32;50.25;;;;;;;;;;4999489;28;20045;-57
2023/12/29 01:23:51;;;;;;;125.40;51.85;;;;;;;;;;5006377;28;21702;-54
2023/12/29 01:26:16;;;;;;;97.03;47.83;;;;;;;;;;4996638;28;20066;-54
2023/12/29 01:28:41;;;;;;;109.80;49.50;;;;;;;;;;4998919;28;20734;-56
2023/12/29 01:31:08;;;;;;;114.70;52.92;;;;;;;;;;4996812;28;20498;-56
2023/12/29 01:33:34;;;;;;;120.43;54.65;;;;;;;;;;4999789;28;20137;-57
2023/12/29 01:35:59;;;;;;;116.97;51.65;;;;;;;;;;4998002;28;20789;-53
2023/12/29 01:38:24;;;;;;;129.07;54.50;;;;;;;;;;4997384;28;20030;-55
2023/12/29 01:40:49;;;;;;;119.45;53.75;;;;;;;;;;4996902;28;20128;-55
2023/12/29 01:43:15;;;;;;;114.97;53.30;;;;;;;;;;4998608;28;20056;-55
2023/12/29 01:45:40;;;;;;;119.13;54.90;;;;;;;;;;5002708;28;20044;-55
2023/12/29 01:48:06;;;;;;;111.43;51.08;;;;;;;;;;4998753;28;20559;-56
2023/12/29 01:50:32;;;;;;;96.55;44.80;;;;;;;;;;4996135;28;20526;-57
2023/12/29 01:52:57;;;;;;;97.85;44.90;;;;;;;;;;5000522;28;20389;-53
2023/12/29 01:55:23;;;;;;;103.57;49.13;;;;;;;;;;4995273;28;20037;-54
2023/12/29 01:57:49;;;;;;;120.72;52.00;;;;;;;;;;5000346;28;20309;-57
2023/12/29 02:00:16;;;;;;;100.60;45.03;;;;;;;;;;4998725;28;20746;-52
2023/12/29 02:02:41;;;;;;;106.93;49.03;;;;;;;;;;4996337;28;20037;-52
2023/12/29 02:05:07;;;;;;;99.18;46.58;;;;;;;;;;4996824;28;20556;-56
2023/12/29 02:07:32;;;;;;;95.32;44.22;;;;;;;;;;5000430;28;20406;-55
2023/12/29 02:09:59;;;;;;;111.40;50.13;;;;;;;;;;4998308;28;20081;-53
2023/12/29 02:12:24;;;;;;;96.03;42.50;;;;;;;;;;5002277;28;20458;-57
2023/12/29 02:14:50;;;;;;;98.43;43.92;;;;;;;;;;5000200;28;20099;-55
2023/12/29 02:17:30;;;;;;;92.40;42.50;;;;;;;;;;5002743;28;20398;-55
2023/12/29 02:19:56;;;;;;;89.35;41.38;;;;;;;;;;4998826;28;20037;-51
2023/12/29 02:22:22;;;;;;;81.15;38.28;;;;;;;;;;5013023;28;20046;-57
2023/12/29 02:24:48;;;;;;;75.75;36.92;;;;;;;;;;4998478;28;20045;-56
2023/12/29 02:27:16;;;;;;;70.93;36.05;;;;;;;;;;5000909;28;20052;-57
2023/12/29 02:29:44;;;;;;;74.37;36.33;;;;;;;;;;4999972;28;20045;-54
2023/12/29 02:32:11;;;;;;;71.45;35.05;;;;;;;;;;5000608;28;20026;-56
2023/12/29 02:34:37;;;;;;;70.68;33.40;;;;;;;;;;4999326;28;20075;-56
2023/12/29 02:37:03;;;;;;;71.20;33.15;;;;;;;;;;5008085;28;20030;-54
2023/12/29 02:39:28;;;;;;;62.03;29.60;;;;;;;;;;4998266;28;20124;-58
2023/12/29 02:41:54;;;;;;;57.65;30.52;;;;;;;;;;5000474;28;20089;-56
2023/12/29 02:44:19;;;;;;;70.22;30.98;;;;;;;;;;4998270;28;20022;-53
2023/12/29 02:46:44;;;;;;;63.80;32.33;;;;;;;;;;5005773;28;20116;-55
2023/12/29 02:49:12;;;;;;;67.15;30.20;;;;;;;;;;4998957;28;20497;-55
2023/12/29 02:51:38;;;;;;;50.17;27.33;;;;;;;;;;5000033;28;20029;-56
2023/12/29 02:54:05;;;;;;;91.82;37.13;;;;;;;;;;4996882;28;20539;-53
2023/12/29 02:56:30;;;;;;;59.72;27.42;;;;;;;;;;4999285;28;20147;-52
2023/12/29 02:58:56;;;;;;;54.17;27.95;;;;;;;;;;4998013;28;20531;-52
2023/12/29 03:01:21;;;;;;;58.25;28.92;;;;;;;;;;4997916;28;20044;-55
2023/12/29 03:03:46;;;;;;;66.00;31.13;;;;;;;;;;4997894;28;20044;-58
2023/12/29 03:06:11;;;;;;;58.47;31.00;;;;;;;;;;5000094;28;20033;-52
2023/12/29 03:08:37;;;;;;;62.20;32.10;;;;;;;;;;4998943;28;20041;-58
2023/12/29 03:11:02;;;;;;;65.22;32.40;;;;;;;;;;4997835;28;20036;-55
2023/12/29 03:13:27;;;;;;;66.13;32.95;;;;;;;;;;4998326;28;20025;-56
2023/12/29 03:15:53;;;;;;;61.17;30.92;;;;;;;;;;4997768;28;20037;-55
2023/12/29 03:18:18;;;;;;;63.25;32.05;;;;;;;;;;5011901;28;20064;-53
2023/12/29 03:20:43;;;;;;;69.40;33.15;;;;;;;;;;5008892;28;20466;-53
2023/12/29 03:23:08;;;;;;;68.35;31.38;;;;;;;;;;4999532;28;20033;-57
2023/12/29 03:25:34;;;;;;;76.53;33.97;;;;;;;;;;4997507;28;20541;-55
2023/12/29 03:28:00;;;;;;;75.90;35.65;;;;;;;;;;4998159;28;20026;-54
2023/12/29 03:30:25;;;;;;;67.18;32.72;;;;;;;;;;4997078;28;20480;-53
2023/12/29 03:32:50;;;;;;;58.35;29.00;;;;;;;;;;4999579;28;20025;-56
2023/12/29 03:35:16;;;;;;;58.47;28.23;;;;;;;;;;4997042;28;21825;-52
2023/12/29 03:37:41;;;;;;;59.30;26.73;;;;;;;;;;4997790;28;20018;-55
2023/12/29 03:40:07;;;;;;;60.60;28.70;;;;;;;;;;4996377;28;20032;-53
2023/12/29 03:42:32;;;;;;;56.20;27.08;;;;;;;;;;4998225;28;20037;-56
2023/12/29 03:44:58;;;;;;;57.53;29.80;;;;;;;;;;5000976;28;20029;-52
2023/12/29 03:47:23;;;;;;;69.05;31.70;;;;;;;;;;5009808;28;20112;-56
2023/12/29 03:49:48;;;;;;;59.53;29.02;;;;;;;;;;5000651;28;20113;-56
2023/12/29 03:52:14;;;;;;;58.20;27.67;;;;;;;;;;4996525;28;20025;-55
2023/12/29 03:54:39;;;;;;;57.25;26.40;;;;;;;;;;4997466;28;20514;-53
2023/12/29 03:57:04;;;;;;;58.10;28.92;;;;;;;;;;4995798;28;20029;-55
2023/12/29 03:59:29;;;;;;;58.20;28.73;;;;;;;;;;4998503;28;20052;-57
2023/12/29 04:01:55;;;;;;;57.53;28.60;;;;;;;;;;4999831;28;20375;-56
2023/12/29 04:04:21;;;;;;;52.70;26.23;;;;;;;;;;4996630;28;20449;-57
2023/12/29 04:06:46;;;;;;;54.20;27.38;;;;;;;;;;4999106;28;20046;-56
2023/12/29 04:09:11;;;;;;;64.70;28.63;;;;;;;;;;4996654;28;20425;-58
2023/12/29 04:11:36;;;;;;;56.70;28.58;;;;;;;;;;4997642;28;20449;-56
2023/12/29 04:14:02;;;;;;;58.58;28.63;;;;;;;;;;4996702;28;20026;-56
2023/12/29 04:16:27;;;;;;;49.60;25.13;;;;;;;;;;5010023;28;20561;-56
2023/12/29 04:18:52;;;;;;;52.05;26.92;;;;;;;;;;4997749;28;20403;-54
2023/12/29 04:21:17;;;;;;;58.22;27.70;;;;;;;;;;4999147;28;20033;-55
2023/12/29 04:23:43;;;;;;;51.80;24.08;;;;;;;;;;5003352;28;20382;-55
2023/12/29 04:26:08;;;;;;;46.40;23.38;;;;;;;;;;5002479;28;20379;-55
2023/12/29 04:28:33;;;;;;;43.88;22.58;;;;;;;;;;4996236;28;20065;-56
2023/12/29 04:30:59;;;;;;;40.95;23.23;;;;;;;;;;4998704;28;20727;-57
2023/12/29 04:33:24;;;;;;;47.97;23.08;;;;;;;;;;4996976;28;20033;-55
2023/12/29 04:35:49;;;;;;;43.35;23.23;;;;;;;;;;5002309;28;20630;-55
2023/12/29 04:38:17;;;;;;;41.38;20.58;;;;;;;;;;4999128;28;20064;-57
2023/12/29 04:40:42;;;;;;;53.58;24.65;;;;;;;;;;4997918;28;20028;-55
2023/12/29 04:43:08;;;;;;;47.90;25.40;;;;;;;;;;4996355;28;20394;-56
2023/12/29 04:45:33;;;;;;;45.28;23.15;;;;;;;;;;5006070;28;20026;-55
2023/12/29 04:47:58;;;;;;;52.67;25.13;;;;;;;;;;4996683;28;20030;-56
2023/12/29 04:50:23;;;;;;;42.50;22.95;;;;;;;;;;4997147;28;20041;-54
2023/12/29 04:52:49;;;;;;;42.55;22.40;;;;;;;;;;4998181;28;20029;-58
2023/12/29 04:55:14;;;;;;;42.03;22.00;;;;;;;;;;4999676;28;20358;-56
2023/12/29 04:57:39;;;;;;;45.20;22.45;;;;;;;;;;5005618;28;20040;-58
2023/12/29 05:00:05;;;;;;;46.67;22.33;;;;;;;;;;5002086;28;20457;-57
2023/12/29 05:02:30;;;;;;;45.45;22.70;;;;;;;;;;4997936;28;20040;-57
2023/12/29 05:04:56;;;;;;;46.92;22.02;;;;;;;;;;4997943;28;20026;-57
2023/12/29 05:07:23;;;;;;;42.08;22.77;;;;;;;;;;5001667;28;20481;-55
2023/12/29 05:09:49;;;;;;;41.28;22.42;;;;;;;;;;4997461;28;20025;-56
2023/12/29 05:12:14;;;;;;;42.53;23.05;;;;;;;;;;4996221;28;20552;-58
2023/12/29 05:14:40;;;;;;;91.93;34.38;;;;;;;;;;4997847;28;20475;-55
2023/12/29 05:17:05;;;;;;;40.47;20.42;;;;;;;;;;5013148;28;20485;-56
2023/12/29 05:19:30;;;;;;;40.65;21.63;;;;;;;;;;4997034;28;20114;-58
2023/12/29 05:21:56;;;;;;;42.42;19.52;;;;;;;;;;5008475;28;20061;-56
2023/12/29 05:24:21;;;;;;;37.78;18.90;;;;;;;;;;4994642;28;20514;-55
2023/12/29 05:26:46;;;;;;;39.88;21.15;;;;;;;;;;4996673;28;20580;-58
2023/12/29 05:29:11;;;;;;;36.95;18.88;;;;;;;;;;4996489;28;20404;-58
2023/12/29 05:31:37;;;;;;;38.38;19.50;;;;;;;;;;4997243;28;20483;-56
2023/12/29 05:34:02;;;;;;;33.42;18.63;;;;;;;;;;5007927;28;20061;-58
2023/12/29 05:36:27;;;;;;;37.53;18.75;;;;;;;;;;5002148;28;20117;-54
2023/12/29 05:38:53;;;;;;;36.53;19.58;;;;;;;;;;5008958;28;20477;-57
2023/12/29 05:41:19;;;;;;;38.88;20.35;;;;;;;;;;4999683;28;20164;-57
2023/12/29 05:43:44;;;;;;;36.08;19.20;;;;;;;;;;5017599;28;20087;-57
2023/12/29 05:46:13;;;;;;;44.53;21.67;;;;;;;;;;5007881;28;20034;-58
2023/12/29 05:48:38;;;;;;;41.95;20.58;;;;;;;;;;5001418;28;20033;-54
2023/12/29 05:51:10;;;;;;;48.28;21.38;;;;;;;;;;5002216;28;20057;-54
2023/12/29 05:53:36;;;;;;;59.38;22.15;;;;;;;;;;5003859;28;20037;-53
2023/12/29 05:56:01;;;;;;;150.93;36.17;;;;;;;;;;5002585;28;20208;-54
2023/12/29 05:58:26;;;;;;;47.65;20.83;;;;;;;;;;5002073;28;21551;-53
2023/12/29 06:00:52;;;;;;;140.02;30.83;;;;;;;;;;5001833;28;20061;-56
2023/12/29 06:03:17;;;;;;;40.50;19.90;;;;;;;;;;4999529;28;20253;-56
2023/12/29 06:05:43;;;;;;;40.13;19.13;;;;;;;;;;5003805;28;20033;-54
2023/12/29 06:08:08;;;;;;;41.78;20.60;;;;;;;;;;4998640;28;20022;-54
2023/12/29 06:10:35;;;;;;;42.08;19.80;;;;;;;;;;5004302;28;20076;-55
2023/12/29 06:13:01;;;;;;;43.92;20.38;;;;;;;;;;4999562;28;20033;-55
2023/12/29 06:15:26;;;;;;;33.03;17.52;;;;;;;;;;5001394;28;22150;-56
2023/12/29 06:17:51;;;;;;;37.05;20.17;;;;;;;;;;5004188;28;20563;-54
2023/12/29 06:20:17;;;;;;;35.88;18.33;;;;;;;;;;5010973;28;20037;-59
2023/12/29 06:22:42;;;;;;;42.17;21.08;;;;;;;;;;5000407;28;20589;-53
2023/12/29 06:25:11;;;;;;;43.13;19.85;;;;;;;;;;5001690;28;20535;-57
2023/12/29 06:27:37;;;;;;;46.05;22.45;;;;;;;;;;4999394;28;20431;-55
2023/12/29 06:30:06;;;;;;;42.58;21.58;;;;;;;;;;5003626;28;20311;-56
2023/12/29 06:32:32;;;;;;;37.45;20.75;;;;;;;;;;5000881;28;20040;-57
2023/12/29 06:34:57;;;;;;;37.55;18.92;;;;;;;;;;5018717;28;20026;-55
2023/12/29 06:37:22;;;;;;;35.78;18.67;;;;;;;;;;5001560;28;20360;-55
2023/12/29 06:39:47;;;;;;;40.40;19.60;;;;;;;;;;5001332;28;20108;-55
2023/12/29 06:42:13;;;;;;;36.67;17.98;;;;;;;;;;5002572;28;20371;-57
2023/12/29 06:44:38;;;;;;;33.90;17.10;;;;;;;;;;5002307;28;20951;-55
2023/12/29 06:47:05;;;;;;;39.35;18.10;;;;;;;;;;5003535;28;20037;-56
2023/12/29 06:49:31;;;;;;;33.92;18.67;;;;;;;;;;4999351;28;20030;-55
2023/12/29 06:51:56;;;;;;;35.92;19.83;;;;;;;;;;4997126;28;20560;-57
2023/12/29 06:54:22;;;;;;;32.45;18.15;;;;;;;;;;5026730;28;20049;-55
2023/12/29 06:56:48;;;;;;;33.67;17.67;;;;;;;;;;5000133;28;20488;-55
2023/12/29 06:59:13;;;;;;;37.65;19.80;;;;;;;;;;5000877;28;20022;-58
2023/12/29 07:01:40;;;;;;;36.60;19.88;;;;;;;;;;5003239;28;20033;-54
2023/12/29 07:04:05;;;;;;;33.03;17.95;;;;;;;;;;4997414;28;20060;-56
2023/12/29 07:06:31;;;;;;;36.78;21.15;;;;;;;;;;5001698;28;20120;-56
2023/12/29 07:08:56;;;;;;;53.35;26.13;;;;;;;;;;4999799;28;20132;-56
2023/12/29 07:11:21;;;;;;;45.10;23.20;;;;;;;;;;5003387;28;20025;-57
2023/12/29 07:13:47;;;;;;;39.15;20.88;;;;;;;;;;4996893;28;21509;-57
2023/12/29 07:16:12;;;;;;;42.53;21.88;;;;;;;;;;4998368;28;20047;-57
2023/12/29 07:18:37;;;;;;;34.70;20.58;;;;;;;;;;4997335;28;20034;-54
2023/12/29 07:21:03;;;;;;;44.47;22.00;;;;;;;;;;5008402;28;20021;-57
2023/12/29 07:23:28;;;;;;;36.58;19.95;;;;;;;;;;4981016;28;20029;-56
2023/12/29 07:25:53;;;;;;;39.72;22.80;;;;;;;;;;4998240;28;20553;-55
2023/12/29 07:28:18;;;;;;;37.60;21.58;;;;;;;;;;4998217;28;20125;-55
2023/12/29 07:30:44;;;;;;;37.35;21.70;;;;;;;;;;4999298;28;20112;-57
2023/12/29 07:33:09;;;;;;;45.50;24.25;;;;;;;;;;5012434;28;20039;-55
2023/12/29 07:35:34;;;;;;;43.60;23.45;;;;;;;;;;5000257;28;20045;-56
2023/12/29 07:37:59;;;;;;;42.10;24.50;;;;;;;;;;4999346;28;20064;-53
2023/12/29 07:40:25;;;;;;;41.50;23.35;;;;;;;;;;4999296;28;20033;-56
2023/12/29 07:42:51;;;;;;;46.47;23.25;;;;;;;;;;4999131;28;20104;-56
2023/12/29 07:45:17;;;;;;;37.80;21.10;;;;;;;;;;5000671;28;20572;-56
2023/12/29 07:47:42;;;;;;;43.25;23.42;;;;;;;;;;4998616;28;20119;-52
2023/12/29 07:50:08;;;;;;;43.60;22.67;;;;;;;;;;4999356;28;20029;-53
2023/12/29 07:52:33;;;;;;;38.30;21.13;;;;;;;;;;4998251;28;20053;-54
2023/12/29 07:54:59;;;;;;;35.70;20.73;;;;;;;;;;4999375;28;20041;-54
2023/12/29 07:57:24;;;;;;;38.10;20.58;;;;;;;;;;4996644;28;20034;-55
2023/12/29 07:59:49;;;;;;;41.15;20.00;;;;;;;;;;4999714;28;20040;-56
2023/12/29 08:02:14;;;;;;;33.33;18.77;;;;;;;;;;4999193;28;20550;-52
2023/12/29 08:04:40;;;;;;;43.47;20.65;;;;;;;;;;4996296;28;21732;-56
2023/12/29 08:07:05;;;;;;;33.53;20.05;;;;;;;;;;4979533;28;20490;-54
2023/12/29 08:09:30;;;;;;;35.35;19.90;;;;;;;;;;4997717;28;20101;-57
2023/12/29 08:11:55;;;;;;;35.92;19.45;;;;;;;;;;4997188;28;20033;-53
2023/12/29 08:14:21;;;;;;;47.47;25.33;;;;;;;;;;5027642;28;20419;-55
2023/12/29 08:16:46;;;;;;;49.25;26.15;;;;;;;;;;5004081;28;20167;-55
2023/12/29 08:19:12;;;;;;;40.65;22.40;;;;;;;;;;4995653;28;20431;-55
2023/12/29 08:21:37;;;;;;;38.75;20.00;;;;;;;;;;4995980;28;20034;-56
2023/12/29 08:24:02;;;;;;;31.48;17.55;;;;;;;;;;5007884;28;20175;-55
2023/12/29 08:26:28;;;;;;;31.38;16.70;;;;;;;;;;4998212;28;20085;-58
2023/12/29 08:28:53;;;;;;;26.80;16.45;;;;;;;;;;4998079;28;20026;-57
2023/12/29 08:31:19;;;;;;;27.08;16.17;;;;;;;;;;4997797;28;20537;-57
2023/12/29 08:33:44;;;;;;;25.75;15.20;;;;;;;;;;4996425;28;20034;-55
2023/12/29 08:36:11;;;;;;;74.93;27.83;;;;;;;;;;4998830;28;20533;-57
2023/12/29 08:38:36;;;;;;;27.40;15.20;;;;;;;;;;4995733;28;20080;-57
2023/12/29 08:41:01;;;;;;;24.55;14.27;;;;;;;;;;4997793;28;20022;-55
2023/12/29 08:43:27;;;;;;;21.08;13.32;;;;;;;;;;4996474;28;20037;-54
2023/12/29 08:45:52;;;;;;;23.45;13.38;;;;;;;;;;4998637;28;20029;-56
2023/12/29 08:48:17;;;;;;;25.83;14.93;;;;;;;;;;4996662;28;20568;-57
2023/12/29 08:50:43;;;;;;;20.65;12.40;;;;;;;;;;4999686;28;20028;-53
2023/12/29 08:53:08;;;;;;;18.63;11.35;;;;;;;;;;4995383;28;20056;-55
2023/12/29 08:55:34;;;;;;;18.75;10.30;;;;;;;;;;4999230;28;20037;-55
2023/12/29 08:57:59;;;;;;;15.20;10.18;;;;;;;;;;4995622;28;20037;-53
2023/12/29 09:00:24;;;;;;;16.40;9.52;;;;;;;;;;4999337;28;20029;-56
2023/12/29 09:02:49;;;;;;;18.40;10.45;;;;;;;;;;4995631;28;20298;-56
2023/12/29 09:05:15;;;;;;;18.05;11.02;;;;;;;;;;4997536;28;20454;-55
2023/12/29 09:07:40;;;;;;;23.33;12.07;;;;;;;;;;5015465;28;20041;-52
2023/12/29 09:10:10;;;;;;;22.85;13.65;;;;;;;;;;4997871;28;20195;-55
2023/12/29 09:12:36;;;;;;;15.63;9.57;;;;;;;;;;4999420;28;20025;-56
2023/12/29 09:15:01;;;;;;;16.50;9.68;;;;;;;;;;4999176;28;20440;-56
2023/12/29 09:17:26;;;;;;;20.85;12.68;;;;;;;;;;4997103;28;20576;-54
2023/12/29 09:19:52;;;;;;;18.83;12.13;;;;;;;;;;4996852;28;20045;-53
2023/12/29 09:22:17;;;;;;;14.48;9.52;;;;;;;;;;4992786;28;20277;-56
2023/12/29 09:24:42;;;;;;;12.73;8.57;;;;;;;;;;4998296;28;20056;-54
2023/12/29 09:27:09;;;;;;;14.15;8.35;;;;;;;;;;4997142;28;20491;-56
2023/12/29 09:29:34;;;;;;;12.55;7.65;;;;;;;;;;4999067;28;20037;-54
2023/12/29 09:31:59;;;;;;;24.75;10.68;;;;;;;;;;4995122;28;20145;-56
2023/12/29 09:34:24;;;;;;;22.00;12.23;;;;;;;;;;4996114;28;20029;-51
2023/12/29 09:36:50;;;;;;;15.60;9.38;;;;;;;;;;4999148;28;20118;-56
2023/12/29 09:39:16;;;;;;;17.75;9.77;;;;;;;;;;5009060;28;21636;-51
2023/12/29 09:41:43;;;;;;;13.43;7.63;;;;;;;;;;4996785;28;20497;-56
2023/12/29 09:44:12;;;;;;;11.90;7.10;;;;;;;;;;4996075;28;20368;-54
2023/12/29 09:46:38;;;;;;;11.43;7.30;;;;;;;;;;4999898;28;20030;-52
2023/12/29 09:49:05;;;;;;;11.48;6.88;;;;;;;;;;4995149;28;20479;-53
2023/12/29 09:51:31;;;;;;;10.15;5.60;;;;;;;;;;4996748;28;20088;-55
2023/12/29 09:53:58;;;;;;;12.85;6.78;;;;;;;;;;4996128;28;20552;-52
2023/12/29 09:56:24;;;;;;;8.63;5.35;;;;;;;;;;4996539;28;20106;-57
2023/12/29 09:58:50;;;;;;;7.63;5.60;;;;;;;;;;4997086;28;20490;-54
2023/12/29 10:01:17;;;;;;;11.65;6.07;;;;;;;;;;4996737;28;20061;-54
2023/12/29 10:03:43;;;;;;;15.93;7.25;;;;;;;;;;4996866;28;20120;-57
2023/12/29 10:06:09;;;;;;;9.48;5.10;;;;;;;;;;4998579;28;20397;-53
2023/12/29 10:08:34;;;;;;;9.30;5.18;;;;;;;;;;4990922;28;20069;-52
2023/12/29 10:11:01;;;;;;;8.20;4.97;;;;;;;;;;4992551;28;20034;-55
2023/12/29 10:13:28;;;;;;;7.30;5.20;;;;;;;;;;4987347;28;20029;-56
2023/12/29 10:16:12;;;;;;;10.07;5.60;;;;;;;;;;4987338;28;20517;-54
2023/12/29 10:18:41;;;;;;;13.63;5.50;;;;;;;;;;4989598;28;20112;-55
2023/12/29 10:21:12;;;;;;;11.02;6.63;;;;;;;;;;4990370;28;20607;-53
2023/12/29 10:23:38;;;;;;;11.00;6.20;;;;;;;;;;4989292;28;20034;-54
2023/12/29 10:26:03;;;;;;;14.27;6.30;;;;;;;;;;4998286;28;20727;-53
2023/12/29 10:28:29;;;;;;;9.38;5.38;;;;;;;;;;4987457;28;20907;-56
2023/12/29 10:30:54;;;;;;;11.70;5.87;;;;;;;;;;4991000;28;20026;-56
2023/12/29 10:33:24;;;;;;;12.55;5.63;;;;;;;;;;4990036;28;20278;-57
2023/12/29 10:36:03;;;;;;;9.68;5.82;;;;;;;;;;4990190;28;20038;-56
2023/12/29 10:38:31;;;;;;;10.05;5.50;;;;;;;;;;4997994;28;20061;-55
2023/12/29 10:41:16;;;;;;;10.77;5.78;;;;;;;;;;4990488;28;20084;-55
2023/12/29 10:43:42;;;;;;;10.52;5.07;;;;;;;;;;4992372;28;20026;-55
2023/12/29 10:46:08;;;;;;;48.85;12.00;;;;;;;;;;4989626;28;20033;-55
2023/12/29 10:48:34;;;;;;;9.68;5.65;;;;;;;;;;5003927;28;20021;-57
2023/12/29 10:51:01;;;;;;;14.98;8.07;;;;;;;;;;4991327;28;20025;-56
2023/12/29 10:53:26;;;;;;;16.83;7.82;;;;;;;;;;4990193;28;20029;-55
2023/12/29 10:55:52;;;;;;;7.72;4.35;;;;;;;;;;4989430;28;20418;-54
2023/12/29 10:58:19;;;;;;;13.68;6.40;;;;;;;;;;4988425;28;20025;-54
2023/12/29 11:00:44;;;;;;;12.20;5.25;;;;;;;;;;4991041;28;20025;-56
2023/12/29 11:03:14;;;;;;;8.52;5.32;;;;;;;;;;4990132;28;20022;-54
2023/12/29 11:05:40;;;;;;;15.65;6.97;;;;;;;;;;4989316;28;20151;-57
2023/12/29 11:08:14;;;;;;;13.48;7.53;;;;;;;;;;4988343;28;20036;-57
2023/12/29 11:10:40;;;;;;;16.08;7.00;;;;;;;;;;4995897;28;20029;-56
2023/12/29 11:13:05;;;;;;;11.07;6.13;;;;;;;;;;4990502;28;20428;-54
2023/12/29 11:15:30;;;;;;;11.23;6.32;;;;;;;;;;4989463;28;20422;-56
2023/12/29 11:17:56;;;;;;;8.23;5.22;;;;;;;;;;4991434;28;20033;-56
2023/12/29 11:20:21;;;;;;;14.70;6.68;;;;;;;;;;4991829;28;20025;-53
2023/12/29 11:22:47;;;;;;;12.35;6.28;;;;;;;;;;5001084;28;20958;-54
2023/12/29 11:25:12;;;;;;;12.70;7.70;;;;;;;;;;4969942;28;20046;-55
2023/12/29 11:27:38;;;;;;;11.60;6.22;;;;;;;;;;4987450;28;22402;-56
2023/12/29 11:30:04;;;;;;;13.52;5.97;;;;;;;;;;4997276;28;20025;-53
2023/12/29 11:32:35;;;;;;;11.68;6.38;;;;;;;;;;4994846;28;20017;-52
2023/12/29 11:35:10;;;;;;;8.35;5.35;;;;;;;;;;4991306;28;20518;-53
2023/12/29 11:37:49;;;;;;;11.18;5.07;;;;;;;;;;4994147;28;21187;-54
2023/12/29 11:40:23;;;;;;;11.75;6.00;;;;;;;;;;4992223;28;22020;-56
2023/12/29 11:42:49;;;;;;;11.70;5.05;;;;;;;;;;4996041;28;20459;-56
2023/12/29 11:45:25;;;;;;;10.45;5.30;;;;;;;;;;4998367;28;20033;-57
2023/12/29 11:47:53;;;;;;;9.25;4.03;;;;;;;;;;4992998;28;20532;-53
2023/12/29 11:50:27;;;;;;;52.58;8.50;;;;;;;;;;4996620;28;20426;-53
2023/12/29 11:52:53;;;;;;;9.30;4.45;;;;;;;;;;5011063;28;20530;-55
2023/12/29 11:55:19;;;;;;;9.55;4.72;;;;;;;;;;5010167;28;20040;-53
2023/12/29 11:57:45;;;;;;;7.57;3.97;;;;;;;;;;5009064;28;20531;-55
2023/12/29 12:00:10;;;;;;;7.72;4.70;;;;;;;;;;4994195;28;20747;-55
2023/12/29 12:02:36;;;;;;;7.55;4.53;;;;;;;;;;5012239;28;20316;-54
2023/12/29 12:05:01;;;;;;;8.32;4.03;;;;;;;;;;5014578;28;20029;-53
2023/12/29 12:07:27;;;;;;;51.85;9.18;;;;;;;;;;4996639;28;20450;-52
2023/12/29 12:10:12;;;;;;;9.88;5.20;;;;;;;;;;5027875;28;20025;-55
2023/12/29 12:12:41;;;;;;;11.25;4.82;;;;;;;;;;5010617;28;20040;-56
2023/12/29 12:15:33;;;;;;;9.57;4.65;;;;;;;;;;5008710;28;20043;-55
2023/12/29 12:17:59;;;;;;;6.80;4.68;;;;;;;;;;4991802;28;20142;-54
2023/12/29 12:20:25;;;;;;;39.00;8.48;;;;;;;;;;4990870;28;20064;-53
2023/12/29 12:22:56;;;;;;;10.50;5.25;;;;;;;;;;4997049;28;20171;-55
2023/12/29 12:25:21;;;;;;;14.25;5.88;;;;;;;;;;4990075;28;20056;-56
2023/12/29 12:27:47;;;;;;;10.98;6.07;;;;;;;;;;4997182;28;20417;-52
2023/12/29 12:30:18;;;;;;;27.20;6.97;;;;;;;;;;4996227;28;20598;-56
2023/12/29 12:32:43;;;;;;;13.45;5.72;;;;;;;;;;4995345;28;20065;-56
2023/12/29 12:35:16;;;;;;;11.93;5.05;;;;;;;;;;4995423;28;20120;-56
2023/12/29 12:37:41;;;;;;;8.70;5.53;;;;;;;;;;4995389;28;20026;-55
2023/12/29 12:40:08;;;;;;;13.98;6.13;;;;;;;;;;5007735;28;20041;-56
2023/12/29 12:42:37;;;;;;;15.05;5.70;;;;;;;;;;4993990;28;20189;-55
2023/12/29 12:45:04;;;;;;;10.27;5.65;;;;;;;;;;4998592;28;20048;-53
2023/12/29 12:47:34;;;;;;;11.27;6.00;;;;;;;;;;4998197;28;20112;-54
2023/12/29 12:50:00;;;;;;;15.98;5.97;;;;;;;;;;4994851;28;20271;-57
2023/12/29 12:52:25;;;;;;;12.95;6.50;;;;;;;;;;4994411;28;20060;-57
2023/12/29 12:54:52;;;;;;;6.40;4.70;;;;;;;;;;4995245;28;20277;-55
2023/12/29 12:57:19;;;;;;;10.30;5.85;;;;;;;;;;4998072;28;20597;-55
2023/12/29 12:59:44;;;;;;;10.15;5.63;;;;;;;;;;4997690;28;20044;-54
2023/12/29 13:02:09;;;;;;;9.32;6.40;;;;;;;;;;4997065;28;20438;-54
2023/12/29 13:04:35;;;;;;;11.63;6.65;;;;;;;;;;4997044;28;20129;-54
2023/12/29 13:07:00;;;;;;;11.00;6.47;;;;;;;;;;4998544;28;20038;-55
2023/12/29 13:09:25;;;;;;;14.48;5.97;;;;;;;;;;4997737;28;20772;-51
2023/12/29 13:11:51;;;;;;;12.10;6.10;;;;;;;;;;4999179;28;20037;-56
2023/12/29 13:14:22;;;;;;;11.32;4.68;;;;;;;;;;5020549;28;20038;-54
2023/12/29 13:16:49;;;;;;;9.75;5.28;;;;;;;;;;5000857;28;20036;-55
2023/12/29 13:19:21;;;;;;;9.80;5.00;;;;;;;;;;4998732;28;20032;-55
2023/12/29 13:21:51;;;;;;;10.02;5.38;;;;;;;;;;5010585;28;20563;-55
2023/12/29 13:24:16;;;;;;;9.20;5.00;;;;;;;;;;4998313;28;20467;-56
2023/12/29 13:26:43;;;;;;;10.82;5.68;;;;;;;;;;4999551;28;20470;-57
2023/12/29 13:29:09;;;;;;;11.60;6.07;;;;;;;;;;5001302;28;20041;-55
2023/12/29 13:31:34;;;;;;;92.60;13.60;;;;;;;;;;5001648;28;20564;-55
2023/12/29 13:34:20;;;;;;;12.45;6.53;;;;;;;;;;4998059;28;20022;-54
2023/12/29 13:36:50;;;;;;;18.05;8.25;;;;;;;;;;5000535;28;20564;-55
2023/12/29 13:39:16;;;;;;;14.02;6.18;;;;;;;;;;4997523;28;20083;-55
2023/12/29 13:41:42;;;;;;;13.23;6.20;;;;;;;;;;4997880;28;20559;-54
2023/12/29 13:44:08;;;;;;;16.00;6.30;;;;;;;;;;4998529;28;20262;-57
2023/12/29 13:46:33;;;;;;;10.18;6.15;;;;;;;;;;5003507;28;20029;-57
2023/12/29 13:48:59;;;;;;;13.18;6.00;;;;;;;;;;4997378;28;20126;-51
2023/12/29 13:51:25;;;;;;;16.30;7.22;;;;;;;;;;5000547;28;20478;-55
2023/12/29 13:53:57;;;;;;;15.45;7.18;;;;;;;;;;4995907;28;20168;-55
2023/12/29 13:56:22;;;;;;;15.13;7.25;;;;;;;;;;4995303;28;20136;-55
2023/12/29 13:58:51;;;;;;;20.60;10.55;;;;;;;;;;4995920;28;20493;-56
2023/12/29 14:01:16;;;;;;;15.32;9.63;;;;;;;;;;4997888;28;20033;-55
2023/12/29 14:03:48;;;;;;;14.55;8.43;;;;;;;;;;4998819;28;20044;-57
2023/12/29 14:06:20;;;;;;;14.55;7.00;;;;;;;;;;5001467;28;20412;-57
2023/12/29 14:08:45;;;;;;;20.55;11.35;;;;;;;;;;4999857;28;20156;-56
2023/12/29 14:11:11;;;;;;;17.75;8.68;;;;;;;;;;5000502;28;20021;-55
2023/12/29 14:13:43;;;;;;;15.80;8.30;;;;;;;;;;5000276;28;20177;-56
2023/12/29 14:16:08;;;;;;;17.92;8.98;;;;;;;;;;5000369;28;20152;-55